createdAt,value
2018-07-08T00:01:38.660Z,14.90
2018-07-08T00:04:07.450Z,14.90
2018-07-08T00:06:36.267Z,14.80
2018-07-08T00:09:06.493Z,14.70
2018-07-08T00:11:35.310Z,14.70
2018-07-08T00:14:04.109Z,14.70
2018-07-08T00:16:32.917Z,14.70
2018-07-08T00:19:01.714Z,14.60
2018-07-08T00:21:30.526Z,14.60
2018-07-08T00:23:59.326Z,14.60
2018-07-08T00:26:28.658Z,14.60
2018-07-08T00:28:57.418Z,14.60
2018-07-08T00:31:26.312Z,14.50
2018-07-08T00:33:55.125Z,14.40
2018-07-08T00:36:23.940Z,14.40
2018-07-08T00:38:52.747Z,14.40
2018-07-08T00:41:21.554Z,14.30
2018-07-08T00:43:50.490Z,14.30
2018-07-08T00:46:19.298Z,14.30
2018-07-08T00:48:48.108Z,14.20
2018-07-08T00:51:16.913Z,14.20
2018-07-08T00:53:45.724Z,14.20
2018-07-08T00:56:14.531Z,14.10
2018-07-08T00:58:43.630Z,14.10
2018-07-08T01:01:12.748Z,14.10
2018-07-08T01:03:41.544Z,14.00
2018-07-08T01:06:10.355Z,14.00
2018-07-08T01:08:39.151Z,13.90
2018-07-08T01:11:07.962Z,13.90
2018-07-08T01:13:36.749Z,13.90
2018-07-08T01:16:05.585Z,13.80
2018-07-08T01:18:34.379Z,13.80
2018-07-08T01:21:03.188Z,13.80
2018-07-08T01:23:31.980Z,13.70
2018-07-08T01:26:12.333Z,13.70
2018-07-08T01:28:42.023Z,13.70
2018-07-08T01:31:12.152Z,13.70
2018-07-08T01:33:41.131Z,13.70
2018-07-08T01:36:10.440Z,13.70
2018-07-08T01:38:39.231Z,13.70
2018-07-08T01:41:08.830Z,13.60
2018-07-08T01:43:37.628Z,13.70
2018-07-08T01:46:06.441Z,13.70
2018-07-08T01:48:35.236Z,13.80
2018-07-08T01:51:04.043Z,13.90
2018-07-08T01:53:32.865Z,13.90
2018-07-08T01:56:01.668Z,14.00
2018-07-08T01:58:30.474Z,14.00
2018-07-08T02:00:59.278Z,14.10
2018-07-08T02:03:28.105Z,14.10
2018-07-08T02:05:56.908Z,14.00
2018-07-08T02:08:25.707Z,14.10
2018-07-08T02:10:54.546Z,14.10
2018-07-08T02:13:23.348Z,14.10
2018-07-08T02:15:52.150Z,14.10
2018-07-08T02:18:20.961Z,14.10
2018-07-08T02:20:49.768Z,14.10
2018-07-08T02:23:18.587Z,14.10
2018-07-08T02:25:47.392Z,14.10
2018-07-08T02:28:16.199Z,14.10
2018-07-08T02:30:45.005Z,14.10
2018-07-08T02:33:13.820Z,14.10
2018-07-08T02:35:42.629Z,14.10
2018-07-08T02:38:11.588Z,14.20
2018-07-08T02:40:40.393Z,14.20
2018-07-08T02:43:09.197Z,14.20
2018-07-08T02:45:38.002Z,14.20
2018-07-08T02:48:07.696Z,14.20
2018-07-08T02:50:36.488Z,14.20
2018-07-08T02:53:05.952Z,14.20
2018-07-08T02:55:34.916Z,14.20
2018-07-08T02:58:03.736Z,14.30
2018-07-08T03:00:32.568Z,14.30
2018-07-08T03:03:01.366Z,14.30
2018-07-08T03:05:30.189Z,14.30
2018-07-08T03:07:59.007Z,14.30
2018-07-08T03:10:27.829Z,14.30
2018-07-08T03:12:56.639Z,14.30
2018-07-08T03:15:25.475Z,14.30
2018-07-08T03:17:54.315Z,14.30
2018-07-08T03:20:23.501Z,14.30
2018-07-08T03:22:52.320Z,14.30
2018-07-08T03:25:21.123Z,14.30
2018-07-08T03:27:49.944Z,14.30
2018-07-08T03:30:18.756Z,14.30
2018-07-08T03:32:47.583Z,14.30
2018-07-08T03:35:16.405Z,14.30
2018-07-08T03:37:45.245Z,14.30
2018-07-08T03:40:14.040Z,14.30
2018-07-08T03:42:42.881Z,14.30
2018-07-08T03:45:11.704Z,14.30
2018-07-08T03:47:40.523Z,14.30
2018-07-08T03:50:09.336Z,14.30
2018-07-08T03:52:38.163Z,14.40
2018-07-08T03:55:06.999Z,14.40
2018-07-08T03:57:35.827Z,14.50
2018-07-08T04:00:04.700Z,14.50
2018-07-08T04:02:33.523Z,14.50
2018-07-08T04:05:02.323Z,14.50
2018-07-08T04:07:31.142Z,14.50
2018-07-08T04:09:59.947Z,14.50
2018-07-08T04:12:28.857Z,14.50
2018-07-08T04:14:57.662Z,14.60
2018-07-08T04:17:26.470Z,14.60
2018-07-08T04:19:55.267Z,14.70
2018-07-08T04:22:24.080Z,14.70
2018-07-08T04:24:52.885Z,14.70
2018-07-08T04:27:21.699Z,14.70
2018-07-08T04:29:50.504Z,14.70
2018-07-08T04:32:19.373Z,14.80
2018-07-08T04:34:48.185Z,14.90
2018-07-08T04:37:16.998Z,14.90
2018-07-08T04:39:45.791Z,15.00
2018-07-08T04:42:14.591Z,15.10
2018-07-08T04:44:43.408Z,15.20
2018-07-08T04:47:12.212Z,15.40
2018-07-08T04:49:41.016Z,15.50
2018-07-08T04:52:09.873Z,15.60
2018-07-08T04:54:38.988Z,15.60
2018-07-08T04:57:07.770Z,15.70
2018-07-08T04:59:36.580Z,15.70
2018-07-08T05:02:05.566Z,15.90
2018-07-08T05:04:34.372Z,16.10
2018-07-08T05:07:03.176Z,16.50
2018-07-08T05:09:31.979Z,16.80
2018-07-08T05:12:00.871Z,17.20
2018-07-08T05:14:29.667Z,17.30
2018-07-08T05:16:58.451Z,17.30
2018-07-08T05:19:27.265Z,17.30
2018-07-08T05:21:56.075Z,17.40
2018-07-08T05:24:24.888Z,17.40
2018-07-08T05:26:53.911Z,17.50
2018-07-08T05:29:22.907Z,17.90
2018-07-08T05:31:51.706Z,18.60
2018-07-08T05:34:20.506Z,19.80
2018-07-08T05:36:49.290Z,21.20
2018-07-08T05:39:18.136Z,22.80
2018-07-08T05:41:46.930Z,24.10
2018-07-08T05:44:15.732Z,25.00
2018-07-08T05:46:44.518Z,25.30
2018-07-08T05:49:13.320Z,25.20
2018-07-08T05:51:42.103Z,24.90
2018-07-08T05:54:10.920Z,24.50
2018-07-08T05:56:39.726Z,24.40
2018-07-08T05:59:08.519Z,24.70
2018-07-08T06:01:37.311Z,25.10
2018-07-08T06:04:06.135Z,25.40
2018-07-08T06:06:34.936Z,25.70
2018-07-08T06:09:04.231Z,25.90
2018-07-08T06:11:33.017Z,25.50
2018-07-08T06:14:01.808Z,25.60
2018-07-08T06:16:30.606Z,26.30
2018-07-08T06:18:59.647Z,26.40
2018-07-08T06:21:28.447Z,26.30
2018-07-08T06:23:57.252Z,26.40
2018-07-08T06:26:26.052Z,25.90
2018-07-08T06:28:54.856Z,26.50
2018-07-08T06:31:23.651Z,26.70
2018-07-08T06:33:52.455Z,26.50
2018-07-08T06:36:21.256Z,27.20
2018-07-08T06:38:50.047Z,27.70
2018-07-08T06:41:18.843Z,27.80
2018-07-08T06:43:47.763Z,28.00
2018-07-08T06:46:16.547Z,28.10
2018-07-08T06:48:45.361Z,28.50
2018-07-08T06:51:14.168Z,29.20
2018-07-08T06:53:42.968Z,29.80
2018-07-08T06:58:40.247Z,29.10
2018-07-08T07:01:09.044Z,29.40
2018-07-08T07:03:37.852Z,28.80
2018-07-08T07:06:06.718Z,28.10
2018-07-08T07:08:35.530Z,27.80
2018-07-08T07:11:04.324Z,28.10
2018-07-08T07:13:33.122Z,28.10
2018-07-08T07:16:01.915Z,27.50
2018-07-08T07:18:30.743Z,26.40
2018-07-08T07:20:59.540Z,25.10
2018-07-08T07:23:28.353Z,23.80
2018-07-08T07:25:57.243Z,22.70
2018-07-08T07:28:26.072Z,21.80
2018-07-08T07:30:54.851Z,21.40
2018-07-08T07:33:23.671Z,21.20
2018-07-08T07:35:52.471Z,21.00
2018-07-08T07:38:21.267Z,21.20
2018-07-08T07:40:50.078Z,21.20
2018-07-08T07:43:19.108Z,21.10
2018-07-08T07:45:47.920Z,21.40
2018-07-08T07:48:17.092Z,21.40
2018-07-08T07:50:45.880Z,21.30
2018-07-08T07:53:14.672Z,21.40
2018-07-08T07:55:43.474Z,21.20
2018-07-08T07:58:12.274Z,21.40
2018-07-08T08:00:41.089Z,21.60
2018-07-08T08:03:09.919Z,21.70
2018-07-08T08:05:38.728Z,22.20
2018-07-08T08:08:07.564Z,22.80
2018-07-08T08:10:36.394Z,23.30
2018-07-08T08:13:05.260Z,23.30
2018-07-08T08:15:34.019Z,23.80
2018-07-08T08:18:02.828Z,24.70
2018-07-08T08:20:31.639Z,24.80
2018-07-08T08:23:00.449Z,24.70
2018-07-08T08:25:29.292Z,24.80
2018-07-08T08:27:58.152Z,24.60
2018-07-08T08:30:26.972Z,24.20
2018-07-08T08:32:55.781Z,24.10
2018-07-08T08:35:24.587Z,23.80
2018-07-08T08:37:55.405Z,23.90
2018-07-08T08:40:26.531Z,23.80
2018-07-08T08:42:55.700Z,23.50
2018-07-08T08:45:25.823Z,23.50
2018-07-08T08:47:54.645Z,23.40
2018-07-08T08:50:23.460Z,23.20
2018-07-08T08:52:52.421Z,22.80
2018-07-08T08:55:21.229Z,22.40
2018-07-08T08:57:50.031Z,22.50
2018-07-08T09:00:19.584Z,22.60
2018-07-08T09:02:48.404Z,22.60
2018-07-08T09:05:17.232Z,22.80
2018-07-08T09:07:46.050Z,22.80
2018-07-08T09:10:14.859Z,22.40
2018-07-08T09:12:43.680Z,22.20
2018-07-08T09:15:12.511Z,22.10
2018-07-08T09:17:41.321Z,22.10
2018-07-08T09:20:10.131Z,22.00
2018-07-08T09:22:38.935Z,21.90
2018-07-08T09:25:07.760Z,21.90
2018-07-08T09:27:36.680Z,21.80
2018-07-08T09:30:05.481Z,21.90
2018-07-08T09:32:34.299Z,22.00
2018-07-08T09:35:03.116Z,22.20
2018-07-08T09:37:31.924Z,22.20
2018-07-08T09:40:00.779Z,22.30
2018-07-08T09:42:29.598Z,22.50
2018-07-08T09:44:58.415Z,22.70
2018-07-08T09:49:55.739Z,22.70
2018-07-08T09:52:24.539Z,22.80
2018-07-08T09:54:53.375Z,22.70
2018-07-08T09:57:22.331Z,22.60
2018-07-08T09:59:51.162Z,22.80
2018-07-08T10:02:19.991Z,22.80
2018-07-08T10:04:48.999Z,22.70
2018-07-08T10:07:18.188Z,22.80
2018-07-08T10:09:46.991Z,22.90
2018-07-08T10:12:15.802Z,23.00
2018-07-08T10:14:44.632Z,23.10
2018-07-08T10:17:13.432Z,23.30
2018-07-08T10:19:42.336Z,23.20
2018-07-08T10:22:11.111Z,23.50
2018-07-08T10:24:39.935Z,24.00
2018-07-08T10:27:23.232Z,24.70
2018-07-08T10:29:52.044Z,25.20
2018-07-08T10:34:49.482Z,25.50
2018-07-08T10:37:18.312Z,25.30
2018-07-08T10:39:47.119Z,25.40
2018-07-08T10:42:15.927Z,25.40
2018-07-08T10:44:44.744Z,25.40
2018-07-08T10:47:13.571Z,24.90
2018-07-08T10:49:42.381Z,24.90
2018-07-08T10:52:11.196Z,24.90
2018-07-08T10:54:40.017Z,25.00
2018-07-08T10:57:08.834Z,25.00
2018-07-08T10:59:37.646Z,25.20
2018-07-08T11:02:06.456Z,25.30
2018-07-08T11:04:35.330Z,25.30
2018-07-08T11:07:04.135Z,25.30
2018-07-08T11:09:32.928Z,25.20
2018-07-08T11:12:01.740Z,25.10
2018-07-08T11:14:30.540Z,25.20
2018-07-08T11:16:59.356Z,25.30
2018-07-08T11:19:28.143Z,25.30
2018-07-08T11:21:56.978Z,25.10
2018-07-08T11:24:25.751Z,25.10
2018-07-08T11:26:54.577Z,25.10
2018-07-08T11:29:23.371Z,25.10
2018-07-08T11:31:52.176Z,25.30
2018-07-08T11:34:20.963Z,25.40
2018-07-08T11:36:49.768Z,25.40
2018-07-08T11:39:18.576Z,25.40
2018-07-08T11:41:47.394Z,25.30
2018-07-08T11:44:16.185Z,25.10
2018-07-08T11:46:44.994Z,24.70
2018-07-08T11:49:13.791Z,24.40
2018-07-08T11:51:42.610Z,24.20
2018-07-08T11:54:11.403Z,24.00
2018-07-08T11:56:40.204Z,24.00
2018-07-08T11:59:08.993Z,23.90
2018-07-08T12:01:37.804Z,24.00
2018-07-08T12:06:35.365Z,24.10
2018-07-08T12:09:04.720Z,24.00
2018-07-08T12:11:33.551Z,23.80
2018-07-08T12:14:02.383Z,23.60
2018-07-08T12:16:31.329Z,23.80
2018-07-08T12:19:00.128Z,23.90
2018-07-08T12:21:28.988Z,24.20
2018-07-08T12:23:57.871Z,24.20
2018-07-08T12:26:26.679Z,24.10
2018-07-08T12:28:55.627Z,24.10
2018-07-08T12:31:24.485Z,24.00
2018-07-08T12:33:53.290Z,24.00
2018-07-08T12:36:22.106Z,24.00
2018-07-08T12:38:51.339Z,24.10
2018-07-08T12:41:20.156Z,24.20
2018-07-08T12:43:48.977Z,24.30
2018-07-08T12:46:17.793Z,24.40
2018-07-08T12:48:46.676Z,24.50
2018-07-08T12:51:15.496Z,24.40
2018-07-08T12:53:44.371Z,24.40
2018-07-08T12:56:13.323Z,24.50
2018-07-08T12:58:42.148Z,24.50
2018-07-08T13:01:10.948Z,24.60
2018-07-08T13:03:39.799Z,24.50
2018-07-08T13:06:08.628Z,24.50
2018-07-08T13:08:37.478Z,24.40
2018-07-08T13:11:06.367Z,24.40
2018-07-08T13:13:35.177Z,24.40
2018-07-08T13:16:04.073Z,24.50
2018-07-08T13:18:32.930Z,24.60
2018-07-08T13:21:01.737Z,24.70
2018-07-08T13:23:30.553Z,25.00
2018-07-08T13:25:59.390Z,25.20
2018-07-08T13:28:28.384Z,25.40
2018-07-08T13:30:57.208Z,25.50
2018-07-08T13:33:26.328Z,25.50
2018-07-08T13:35:55.253Z,25.50
2018-07-08T13:38:24.167Z,25.40
2018-07-08T13:40:52.988Z,25.50
2018-07-08T13:43:21.830Z,25.60
2018-07-08T13:45:50.640Z,25.80
2018-07-08T13:48:19.467Z,25.90
2018-07-08T13:50:48.284Z,26.00
2018-07-08T13:53:17.108Z,26.20
2018-07-08T13:55:45.972Z,26.30
2018-07-08T13:58:14.768Z,26.30
2018-07-08T14:00:43.572Z,26.30
2018-07-08T14:03:12.460Z,26.30
2018-07-08T14:05:41.280Z,26.30
2018-07-08T14:08:10.099Z,26.40
2018-07-08T14:10:39.615Z,26.40
2018-07-08T14:13:08.907Z,26.30
2018-07-08T14:15:37.967Z,26.30
2018-07-08T14:18:07.063Z,26.40
2018-07-08T14:20:35.944Z,26.50
2018-07-08T14:23:04.727Z,26.50
2018-07-08T14:25:33.569Z,26.50
2018-07-08T14:28:02.363Z,26.40
2018-07-08T14:30:31.235Z,26.20
2018-07-08T14:33:00.475Z,26.00
2018-07-08T14:35:29.283Z,26.10
2018-07-08T14:40:26.579Z,26.30
2018-07-08T14:42:55.407Z,26.40
2018-07-08T14:45:24.288Z,26.50
2018-07-08T14:47:53.091Z,26.50
2018-07-08T14:50:21.912Z,26.50
2018-07-08T14:52:50.723Z,26.50
2018-07-08T14:55:19.556Z,26.30
2018-07-08T14:57:48.377Z,26.10
2018-07-08T15:00:17.187Z,26.10
2018-07-08T15:02:46.004Z,26.20
2018-07-08T15:05:14.825Z,26.30
2018-07-08T15:07:43.632Z,26.40
2018-07-08T15:10:12.447Z,26.30
2018-07-08T15:12:41.261Z,26.00
2018-07-08T15:15:10.072Z,26.00
2018-07-08T15:17:38.891Z,26.00
2018-07-08T15:20:07.803Z,26.10
2018-07-08T15:22:36.629Z,26.20
2018-07-08T15:25:05.522Z,26.30
2018-07-08T15:27:34.308Z,26.50
2018-07-08T15:30:03.128Z,26.50
2018-07-08T15:32:32.082Z,26.70
2018-07-08T15:35:01.120Z,26.80
2018-07-08T15:37:29.943Z,26.70
2018-07-08T15:39:58.758Z,26.70
2018-07-08T15:42:27.623Z,26.80
2018-07-08T15:44:56.436Z,26.70
2018-07-08T15:47:25.292Z,26.50
2018-07-08T15:49:54.123Z,26.40
2018-07-08T15:52:22.888Z,26.40
2018-07-08T15:54:51.718Z,26.40
2018-07-08T15:57:20.561Z,26.50
2018-07-08T15:59:49.373Z,26.50
2018-07-08T16:02:18.171Z,26.50
2018-07-08T16:04:47.035Z,26.30
2018-07-08T16:07:15.848Z,26.20
2018-07-08T16:09:44.653Z,26.00
2018-07-08T16:12:13.756Z,25.80
2018-07-08T16:14:42.572Z,25.70
2018-07-08T16:17:11.390Z,25.70
2018-07-08T16:19:40.177Z,25.60
2018-07-08T16:22:08.976Z,25.60
2018-07-08T16:24:37.848Z,25.50
2018-07-08T16:27:07.015Z,25.40
2018-07-08T16:29:35.814Z,25.20
2018-07-08T16:32:04.620Z,25.20
2018-07-08T16:34:33.419Z,25.10
2018-07-08T16:37:02.211Z,25.00
2018-07-08T16:39:31.059Z,24.90
2018-07-08T16:42:00.289Z,24.90
2018-07-08T16:44:29.172Z,24.90
2018-07-08T16:46:57.960Z,24.90
2018-07-08T16:49:26.759Z,24.90
2018-07-08T16:51:55.557Z,24.80
2018-07-08T16:54:24.360Z,24.70
2018-07-08T16:59:21.788Z,24.70
2018-07-08T17:01:50.584Z,24.60
2018-07-08T17:04:19.386Z,24.60
2018-07-08T17:06:48.186Z,24.60
2018-07-08T17:09:16.996Z,24.50
2018-07-08T17:11:45.947Z,24.40
2018-07-08T17:14:14.743Z,24.40
2018-07-08T17:16:43.594Z,24.30
2018-07-08T17:19:12.475Z,24.30
2018-07-08T17:21:41.350Z,24.30
2018-07-08T17:24:10.255Z,24.30
2018-07-08T17:26:39.159Z,24.20
2018-07-08T17:29:08.047Z,24.30
2018-07-08T17:31:37.148Z,24.20
2018-07-08T17:34:05.979Z,24.20
2018-07-08T17:36:34.776Z,24.20
2018-07-08T17:39:03.856Z,24.20
2018-07-08T17:41:32.655Z,24.10
2018-07-08T17:44:01.475Z,24.00
2018-07-08T17:46:30.404Z,24.00
2018-07-08T17:48:59.256Z,24.00
2018-07-08T17:51:28.140Z,24.00
2018-07-08T17:53:56.958Z,23.90
2018-07-08T17:56:25.754Z,23.90
2018-07-08T17:58:54.572Z,23.90
2018-07-08T18:01:23.501Z,23.80
2018-07-08T18:03:52.298Z,23.80
2018-07-08T18:06:21.188Z,23.70
2018-07-08T18:08:50.125Z,23.70
2018-07-08T18:11:18.968Z,23.60
2018-07-08T18:13:47.790Z,23.60
2018-07-08T18:16:16.613Z,23.60
2018-07-08T18:18:45.664Z,23.50
2018-07-08T18:21:14.532Z,23.50
2018-07-08T18:23:43.348Z,23.50
2018-07-08T18:26:12.161Z,23.40
2018-07-08T18:28:41.380Z,23.30
2018-07-08T18:31:10.184Z,23.30
2018-07-08T18:33:39.000Z,23.20
2018-07-08T18:36:07.911Z,23.20
2018-07-08T18:38:36.735Z,23.10
2018-07-08T18:41:05.842Z,23.10
2018-07-08T18:43:34.681Z,23.00
2018-07-08T18:46:03.765Z,23.00
2018-07-08T18:48:36.215Z,22.90
2018-07-08T18:51:05.118Z,22.90
2018-07-08T18:53:33.931Z,22.80
2018-07-08T18:56:02.752Z,22.70
2018-07-08T18:58:31.609Z,22.70
2018-07-08T19:03:30.044Z,22.60
2018-07-08T19:05:59.025Z,22.50
2018-07-08T19:08:27.861Z,22.50
2018-07-08T19:10:56.675Z,22.40
2018-07-08T19:13:25.755Z,22.30
2018-07-08T19:15:54.577Z,22.30
2018-07-08T19:18:23.431Z,22.20
2018-07-08T19:20:52.272Z,22.10
2018-07-08T19:23:21.084Z,22.10
2018-07-08T19:25:49.904Z,22.00
2018-07-08T19:28:18.917Z,21.90
2018-07-08T19:30:48.753Z,21.80
2018-07-08T19:35:46.195Z,21.70
2018-07-08T19:38:15.061Z,21.70
2018-07-08T19:40:43.991Z,21.60
2018-07-08T19:43:13.284Z,21.50
2018-07-08T19:45:42.228Z,21.50
2018-07-08T19:48:11.144Z,21.40
2018-07-08T19:50:40.145Z,21.40
2018-07-08T19:53:09.861Z,21.30
2018-07-08T19:55:38.684Z,21.30
2018-07-08T19:58:08.012Z,21.10
2018-07-08T20:00:36.864Z,21.10
2018-07-08T20:03:05.678Z,21.10
2018-07-08T20:05:34.528Z,21.00
2018-07-08T20:08:03.287Z,21.00
2018-07-08T20:10:32.337Z,20.90
2018-07-08T20:15:29.744Z,20.80
2018-07-08T20:17:58.751Z,20.80
2018-07-08T20:20:27.565Z,20.80
2018-07-08T20:22:56.471Z,20.80
2018-07-08T20:25:25.451Z,20.80
2018-07-08T20:27:54.252Z,20.70
2018-07-08T20:30:23.071Z,20.70
2018-07-08T20:32:51.872Z,20.70
2018-07-08T20:35:20.774Z,20.60
2018-07-08T20:37:49.511Z,20.60
2018-07-08T20:40:18.338Z,20.50
2018-07-08T20:42:47.509Z,20.50
2018-07-08T20:45:16.320Z,20.50
2018-07-08T20:47:45.108Z,20.40
2018-07-08T20:50:14.007Z,20.40
2018-07-08T20:52:42.867Z,20.30
2018-07-08T20:55:11.636Z,20.30
2018-07-08T20:57:40.438Z,20.30
2018-07-08T21:00:09.248Z,20.20
2018-07-08T21:02:38.047Z,20.10
2018-07-08T21:05:06.846Z,20.10
2018-07-08T21:07:35.665Z,20.00
2018-07-08T21:10:04.684Z,20.00
2018-07-08T21:12:33.664Z,20.00
2018-07-08T21:15:02.820Z,19.90
2018-07-08T21:17:31.736Z,19.90
2018-07-08T21:20:00.572Z,19.80
2018-07-08T21:22:29.784Z,19.80
2018-07-08T21:24:58.707Z,19.80
2018-07-08T21:27:27.567Z,19.70
2018-07-08T21:29:56.380Z,19.60
2018-07-08T21:32:25.199Z,19.60
2018-07-08T21:34:54.002Z,19.60
2018-07-08T21:37:22.832Z,19.60
2018-07-08T21:39:51.631Z,19.50
2018-07-08T21:42:20.495Z,19.40
2018-07-08T21:44:49.459Z,19.40
2018-07-08T21:47:18.826Z,19.30
2018-07-08T21:49:47.635Z,19.30
2018-07-08T21:52:16.466Z,19.30
2018-07-08T21:54:45.556Z,19.20
2018-07-08T21:57:14.397Z,19.20
2018-07-08T21:59:43.171Z,19.10
2018-07-08T22:02:17.792Z,19.10
2018-07-08T22:04:46.774Z,19.00
2018-07-08T22:07:22.503Z,19.00
2018-07-08T22:09:52.385Z,18.90
2018-07-08T22:12:21.192Z,18.90
2018-07-08T22:14:50.010Z,18.90
2018-07-08T22:17:18.895Z,18.80
2018-07-08T22:19:47.703Z,18.80
2018-07-08T22:22:16.512Z,18.70
2018-07-08T22:27:13.840Z,18.70
2018-07-08T22:29:42.753Z,18.70
2018-07-08T22:32:11.543Z,18.60
2018-07-08T22:34:40.348Z,18.60
2018-07-08T22:37:09.164Z,18.60
2018-07-08T22:39:38.040Z,18.50
2018-07-08T22:42:06.804Z,18.50
2018-07-08T22:44:35.620Z,18.50
2018-07-08T22:47:04.525Z,18.40
2018-07-08T22:49:33.340Z,18.40
2018-07-08T22:52:02.219Z,18.30
2018-07-08T22:54:31.044Z,18.30
2018-07-08T22:56:59.871Z,18.20
2018-07-08T22:59:29.203Z,18.20
2018-07-08T23:02:09.576Z,18.10
2018-07-08T23:04:38.384Z,18.10
2018-07-08T23:07:07.191Z,18.10
2018-07-08T23:09:35.996Z,18.00
2018-07-08T23:12:04.802Z,18.00
2018-07-08T23:14:33.825Z,17.90
2018-07-08T23:17:02.627Z,17.90
2018-07-08T23:19:31.419Z,17.80
2018-07-08T23:22:00.215Z,17.80
2018-07-08T23:24:29.135Z,17.70
2018-07-08T23:26:57.996Z,17.70
2018-07-08T23:29:26.796Z,17.70
2018-07-08T23:31:55.611Z,17.60
2018-07-08T23:34:24.409Z,17.60
2018-07-08T23:36:53.224Z,17.60
2018-07-08T23:39:22.012Z,17.50
2018-07-08T23:41:50.803Z,17.40
2018-07-08T23:44:19.600Z,17.40
2018-07-08T23:46:48.399Z,17.30
2018-07-08T23:49:17.199Z,17.30
2018-07-08T23:51:46.010Z,17.20
2018-07-08T23:54:14.804Z,17.20
2018-07-08T23:56:43.608Z,17.20
2018-07-08T23:59:12.412Z,17.10
